createdAt,value
2017-06-15T00:00:28.840Z,1002.61
2017-06-15T00:01:09.348Z,1002.61
2017-06-15T00:03:07.544Z,1002.65
2017-06-15T00:03:48.015Z,1002.62
2017-06-15T00:04:28.554Z,1002.61
2017-06-15T00:05:09.064Z,1002.62
2017-06-15T00:05:49.598Z,1002.63
2017-06-15T00:06:30.100Z,1002.63
2017-06-15T00:07:10.631Z,1002.61
2017-06-15T00:07:51.164Z,1002.6
2017-06-15T00:08:31.681Z,1002.58
2017-06-15T00:09:12.201Z,1002.64
2017-06-15T00:09:52.736Z,1002.63
2017-06-15T00:10:33.243Z,1002.66
2017-06-15T00:11:13.771Z,1002.66
2017-06-15T00:11:54.266Z,1002.68
2017-06-15T00:12:34.813Z,1002.65
2017-06-15T00:13:15.309Z,1002.66
2017-06-15T00:13:55.810Z,1002.66
2017-06-15T00:15:53.984Z,1002.65
2017-06-15T00:16:34.485Z,1002.68
2017-06-15T00:17:15.031Z,1002.68
2017-06-15T00:17:55.532Z,1002.65
2017-06-15T00:18:36.032Z,1002.68
2017-06-15T00:19:16.521Z,1002.67
2017-06-15T00:19:57.081Z,1002.62
2017-06-15T00:20:37.567Z,1002.66
2017-06-15T00:21:18.102Z,1002.66
2017-06-15T00:21:58.626Z,1002.67
2017-06-15T00:22:39.169Z,1002.66
2017-06-15T00:23:19.665Z,1002.69
2017-06-15T00:24:00.186Z,1002.63
2017-06-15T00:24:40.734Z,1002.66
2017-06-15T00:25:21.289Z,1002.7
2017-06-15T00:26:01.806Z,1002.68
2017-06-15T00:26:42.318Z,1002.65
2017-06-15T00:27:22.841Z,1002.66
2017-06-15T00:28:03.377Z,1002.62
2017-06-15T00:28:43.882Z,1002.66
2017-06-15T00:29:24.398Z,1002.64
2017-06-15T00:30:04.912Z,1002.65
2017-06-15T00:31:58.025Z,1002.67
2017-06-15T00:32:38.588Z,1002.66
2017-06-15T00:33:19.107Z,1002.65
2017-06-15T00:33:59.658Z,1002.69
2017-06-15T00:34:40.205Z,1002.7
2017-06-15T00:35:20.776Z,1002.68
2017-06-15T00:36:01.299Z,1002.7
2017-06-15T00:36:41.812Z,1002.7
2017-06-15T00:37:22.318Z,1002.69
2017-06-15T00:38:02.824Z,1002.68
2017-06-15T00:38:43.338Z,1002.64
2017-06-15T00:39:23.836Z,1002.66
2017-06-15T00:40:04.495Z,1002.66
2017-06-15T00:40:44.996Z,1002.63
2017-06-15T00:41:25.518Z,1002.57
2017-06-15T00:42:06.060Z,1002.56
2017-06-15T00:42:46.579Z,1002.56
2017-06-15T00:43:27.079Z,1002.53
2017-06-15T00:44:07.577Z,1002.53
2017-06-15T00:44:48.083Z,1002.51
2017-06-15T00:45:28.612Z,1002.49
2017-06-15T00:46:09.194Z,1002.5
2017-06-15T00:46:49.689Z,1002.54
2017-06-15T00:47:30.196Z,1002.55
2017-06-15T00:49:43.510Z,1002.63
2017-06-15T00:50:24.037Z,1002.6
2017-06-15T00:51:04.548Z,1002.56
2017-06-15T00:51:45.084Z,1002.61
2017-06-15T00:52:25.586Z,1002.6
2017-06-15T00:53:06.088Z,1002.59
2017-06-15T00:53:46.598Z,1002.62
2017-06-15T00:54:27.135Z,1002.64
2017-06-15T00:55:07.642Z,1002.63
2017-06-15T00:55:48.190Z,1002.58
2017-06-15T00:56:28.728Z,1002.64
2017-06-15T00:57:09.220Z,1002.64
2017-06-15T00:57:49.764Z,1002.66
2017-06-15T00:58:30.211Z,1002.68
2017-06-15T00:59:10.729Z,1002.65
2017-06-15T00:59:51.244Z,1002.62
2017-06-15T01:00:31.759Z,1002.65
2017-06-15T01:01:12.275Z,1002.65
2017-06-15T01:01:52.797Z,1002.6
2017-06-15T01:02:33.306Z,1002.64
2017-06-15T01:03:13.803Z,1002.61
2017-06-15T01:03:54.375Z,1002.62
2017-06-15T01:04:34.890Z,1002.64
2017-06-15T01:05:15.399Z,1002.66
2017-06-15T01:05:55.904Z,1002.64
2017-06-15T01:06:36.422Z,1002.68
2017-06-15T01:07:16.920Z,1002.65
2017-06-15T01:07:57.453Z,1002.65
2017-06-15T01:08:37.976Z,1002.67
2017-06-15T01:09:18.471Z,1002.62
2017-06-15T01:09:59.020Z,1002.65
2017-06-15T01:10:39.565Z,1002.62
2017-06-15T01:11:20.072Z,1002.66
2017-06-15T01:12:00.581Z,1002.64
2017-06-15T01:12:41.101Z,1002.6
2017-06-15T01:13:21.613Z,1002.66
2017-06-15T01:14:02.111Z,1002.59
2017-06-15T01:14:42.634Z,1002.66
2017-06-15T01:15:23.141Z,1002.63
2017-06-15T01:16:03.671Z,1002.64
2017-06-15T01:16:44.169Z,1002.64
2017-06-15T01:17:24.667Z,1002.65
2017-06-15T01:18:05.191Z,1002.58
2017-06-15T01:18:45.709Z,1002.61
2017-06-15T01:19:26.240Z,1002.63
2017-06-15T01:20:06.762Z,1002.61
2017-06-15T01:20:47.273Z,1002.58
2017-06-15T01:21:27.805Z,1002.63
2017-06-15T01:22:08.327Z,1002.62
2017-06-15T01:22:48.862Z,1002.64
2017-06-15T01:23:29.386Z,1002.68
2017-06-15T01:24:09.886Z,1002.62
2017-06-15T01:24:50.401Z,1002.68
2017-06-15T01:25:30.932Z,1002.63
2017-06-15T01:26:11.422Z,1002.65
2017-06-15T01:26:51.955Z,1002.61
2017-06-15T01:27:32.449Z,1002.6
2017-06-15T01:28:12.946Z,1002.64
2017-06-15T01:28:53.483Z,1002.69
2017-06-15T01:29:34.016Z,1002.67
2017-06-15T01:30:14.596Z,1002.63
2017-06-15T01:30:55.115Z,1002.65
2017-06-15T01:32:53.327Z,1002.67
2017-06-15T01:33:33.834Z,1002.66
2017-06-15T01:34:14.334Z,1002.63
2017-06-15T01:34:54.859Z,1002.69
2017-06-15T01:35:35.369Z,1002.67
2017-06-15T01:36:15.884Z,1002.66
2017-06-15T01:36:56.399Z,1002.64
2017-06-15T01:37:36.916Z,1002.59
2017-06-15T01:38:17.443Z,1002.6
2017-06-15T01:38:57.962Z,1002.59
2017-06-15T01:39:38.701Z,1002.54
2017-06-15T01:40:19.136Z,1002.53
2017-06-15T01:40:59.786Z,1002.52
2017-06-15T01:41:40.258Z,1002.51
2017-06-15T01:42:20.762Z,1002.48
2017-06-15T01:43:02.613Z,1002.55
2017-06-15T01:43:43.546Z,1002.48
2017-06-15T01:45:44.785Z,1002.53
2017-06-15T01:46:25.358Z,1002.48
2017-06-15T01:48:54.596Z,1002.49
2017-06-15T01:49:35.513Z,1002.46
2017-06-15T01:50:16.127Z,1002.47
2017-06-15T01:50:56.628Z,1002.5
2017-06-15T01:51:37.788Z,1002.44
2017-06-15T01:52:21.260Z,1002.49
2017-06-15T01:53:01.547Z,1002.43
2017-06-15T01:53:43.066Z,1002.43
2017-06-15T01:54:23.656Z,1002.52
2017-06-15T01:56:43.096Z,1002.49
2017-06-15T01:57:23.607Z,1002.5
2017-06-15T01:58:04.161Z,1002.5
2017-06-15T01:58:44.689Z,1002.51
2017-06-15T01:59:25.184Z,1002.51
2017-06-15T02:00:05.691Z,1002.53
2017-06-15T02:00:46.224Z,1002.56
2017-06-15T02:01:26.729Z,1002.48
2017-06-15T02:02:07.276Z,1002.56
2017-06-15T02:02:47.815Z,1002.53
2017-06-15T02:03:28.345Z,1002.54
2017-06-15T02:04:08.814Z,1002.55
2017-06-15T02:04:49.336Z,1002.52
2017-06-15T02:05:29.853Z,1002.55
2017-06-15T02:06:10.452Z,1002.58
2017-06-15T02:06:51.010Z,1002.5
2017-06-15T02:07:31.579Z,1002.56
2017-06-15T02:08:12.058Z,1002.55
2017-06-15T02:10:25.305Z,1002.49
2017-06-15T02:11:05.811Z,1002.49
2017-06-15T02:11:46.330Z,1002.49
2017-06-15T02:12:26.881Z,1002.47
2017-06-15T02:13:07.426Z,1002.45
2017-06-15T02:13:47.929Z,1002.47
2017-06-15T02:14:28.474Z,1002.48
2017-06-15T02:15:08.967Z,1002.44
2017-06-15T02:15:49.475Z,1002.43
2017-06-15T02:16:29.994Z,1002.43
2017-06-15T02:17:10.559Z,1002.47
2017-06-15T02:17:51.075Z,1002.48
2017-06-15T02:18:31.616Z,1002.42
2017-06-15T02:19:12.132Z,1002.44
2017-06-15T02:19:52.663Z,1002.45
2017-06-15T02:20:33.190Z,1002.46
2017-06-15T02:21:13.694Z,1002.46
2017-06-15T02:21:54.234Z,1002.4
2017-06-15T02:22:34.783Z,1002.38
2017-06-15T02:23:15.307Z,1002.42
2017-06-15T02:23:55.853Z,1002.43
2017-06-15T02:24:36.341Z,1002.43
2017-06-15T02:25:16.871Z,1002.41
2017-06-15T02:25:57.388Z,1002.43
2017-06-15T02:26:37.885Z,1002.45
2017-06-15T02:27:18.395Z,1002.39
2017-06-15T02:27:58.928Z,1002.47
2017-06-15T02:28:39.467Z,1002.45
2017-06-15T02:29:19.965Z,1002.49
2017-06-15T02:30:00.504Z,1002.49
2017-06-15T02:30:41.003Z,1002.47
2017-06-15T02:31:21.537Z,1002.45
2017-06-15T02:32:02.043Z,1002.48
2017-06-15T02:32:42.589Z,1002.45
2017-06-15T02:33:23.131Z,1002.46
2017-06-15T02:34:03.656Z,1002.46
2017-06-15T02:34:44.164Z,1002.48
2017-06-15T02:35:24.712Z,1002.45
2017-06-15T02:36:05.221Z,1002.48
2017-06-15T02:36:45.769Z,1002.53
2017-06-15T02:37:26.311Z,1002.52
2017-06-15T02:38:06.801Z,1002.56
2017-06-15T02:38:47.326Z,1002.51
2017-06-15T02:39:27.846Z,1002.55
2017-06-15T02:40:08.405Z,1002.52
2017-06-15T02:40:48.871Z,1002.48
2017-06-15T02:41:29.424Z,1002.53
2017-06-15T02:42:09.900Z,1002.5
2017-06-15T02:42:50.580Z,1002.52
2017-06-15T02:43:31.105Z,1002.55
2017-06-15T02:44:11.596Z,1002.57
2017-06-15T02:44:52.125Z,1002.57
2017-06-15T02:45:32.624Z,1002.57
2017-06-15T02:46:13.138Z,1002.56
2017-06-15T02:46:53.657Z,1002.58
2017-06-15T02:47:34.174Z,1002.58
2017-06-15T02:48:14.673Z,1002.57
2017-06-15T02:48:55.157Z,1002.57
2017-06-15T02:49:35.680Z,1002.59
2017-06-15T02:50:16.183Z,1002.57
2017-06-15T02:50:56.681Z,1002.57
2017-06-15T02:51:37.234Z,1002.56
2017-06-15T02:52:17.693Z,1002.59
2017-06-15T02:52:58.163Z,1002.57
2017-06-15T02:53:38.688Z,1002.57
2017-06-15T02:54:19.202Z,1002.57
2017-06-15T02:54:59.700Z,1002.56
2017-06-15T02:55:40.236Z,1002.52
2017-06-15T02:56:20.878Z,1002.52
2017-06-15T02:57:01.282Z,1002.53
2017-06-15T02:57:41.794Z,1002.55
2017-06-15T02:58:22.314Z,1002.59
2017-06-15T02:59:02.868Z,1002.53
2017-06-15T02:59:43.383Z,1002.53
2017-06-15T03:00:23.887Z,1002.58
2017-06-15T03:01:04.407Z,1002.57
2017-06-15T03:01:44.922Z,1002.56
2017-06-15T03:02:25.451Z,1002.56
2017-06-15T03:03:05.979Z,1002.6
2017-06-15T03:03:46.487Z,1002.61
2017-06-15T03:04:27.011Z,1002.63
2017-06-15T03:05:07.510Z,1002.61
2017-06-15T03:05:48.022Z,1002.59
2017-06-15T03:06:28.492Z,1002.58
2017-06-15T03:07:09.001Z,1002.58
2017-06-15T03:07:49.514Z,1002.59
2017-06-15T03:08:30.053Z,1002.6
2017-06-15T03:09:10.549Z,1002.55
2017-06-15T03:09:51.086Z,1002.56
2017-06-15T03:10:31.603Z,1002.55
2017-06-15T03:11:12.200Z,1002.54
2017-06-15T03:11:52.657Z,1002.54
2017-06-15T03:12:33.134Z,1002.59
2017-06-15T03:13:13.652Z,1002.52
2017-06-15T03:13:54.156Z,1002.5
2017-06-15T03:14:34.682Z,1002.55
2017-06-15T03:15:15.212Z,1002.56
2017-06-15T03:15:55.696Z,1002.6
2017-06-15T03:16:36.215Z,1002.57
2017-06-15T03:17:16.736Z,1002.55
2017-06-15T03:17:57.252Z,1002.6
2017-06-15T03:18:37.772Z,1002.59
2017-06-15T03:19:18.266Z,1002.59
2017-06-15T03:19:58.787Z,1002.56
2017-06-15T03:20:39.299Z,1002.59
2017-06-15T03:21:19.818Z,1002.6
2017-06-15T03:22:00.335Z,1002.59
2017-06-15T03:22:40.880Z,1002.59
2017-06-15T03:24:54.180Z,1002.64
2017-06-15T03:25:34.701Z,1002.62
2017-06-15T03:26:15.249Z,1002.63
2017-06-15T03:26:55.998Z,1002.6
2017-06-15T03:27:36.519Z,1002.66
2017-06-15T03:28:17.059Z,1002.63
2017-06-15T03:28:57.567Z,1002.63
2017-06-15T03:29:38.071Z,1002.62
2017-06-15T03:30:18.581Z,1002.62
2017-06-15T03:30:59.110Z,1002.64
2017-06-15T03:32:57.336Z,1002.66
2017-06-15T03:33:37.840Z,1002.62
2017-06-15T03:34:18.369Z,1002.65
2017-06-15T03:34:59.134Z,1002.67
2017-06-15T03:35:39.654Z,1002.66
2017-06-15T03:36:20.147Z,1002.7
2017-06-15T03:37:00.687Z,1002.63
2017-06-15T03:37:41.177Z,1002.67
2017-06-15T03:38:21.689Z,1002.7
2017-06-15T03:39:02.216Z,1002.7
2017-06-15T03:41:20.591Z,1002.72
2017-06-15T03:42:01.105Z,1002.72
2017-06-15T03:42:41.614Z,1002.71
2017-06-15T03:43:22.123Z,1002.71
2017-06-15T03:44:02.647Z,1002.75
2017-06-15T03:44:43.158Z,1002.75
2017-06-15T03:45:23.760Z,1002.73
2017-06-15T03:46:04.259Z,1002.74
2017-06-15T03:46:44.773Z,1002.71
2017-06-15T03:47:25.292Z,1002.75
2017-06-15T03:48:05.827Z,1002.78
2017-06-15T03:48:46.301Z,1002.8
2017-06-15T03:50:40.404Z,1002.83
2017-06-15T03:51:20.894Z,1002.84
2017-06-15T03:52:01.393Z,1002.88
2017-06-15T03:52:41.892Z,1002.86
2017-06-15T03:53:22.419Z,1002.8
2017-06-15T03:54:02.951Z,1002.83
2017-06-15T03:54:43.460Z,1002.83
2017-06-15T03:55:24.098Z,1002.81
2017-06-15T03:56:04.620Z,1002.84
2017-06-15T03:56:45.119Z,1002.84
2017-06-15T03:57:25.638Z,1002.91
2017-06-15T03:58:06.162Z,1002.86
2017-06-15T03:58:46.684Z,1002.94
2017-06-15T03:59:27.199Z,1002.93
2017-06-15T04:00:07.722Z,1002.95
2017-06-15T04:00:48.254Z,1002.91
2017-06-15T04:01:28.765Z,1002.95
2017-06-15T04:02:09.262Z,1002.95
2017-06-15T04:02:49.779Z,1002.91
2017-06-15T04:03:30.300Z,1002.91
2017-06-15T04:04:10.833Z,1002.88
2017-06-15T04:04:51.322Z,1002.92
2017-06-15T04:05:31.841Z,1002.88
2017-06-15T04:06:12.343Z,1002.93
2017-06-15T04:06:52.871Z,1002.93
2017-06-15T04:07:33.435Z,1002.91
2017-06-15T04:08:13.953Z,1002.96
2017-06-15T04:08:54.457Z,1002.95
2017-06-15T04:09:34.965Z,1002.96
2017-06-15T04:10:15.467Z,1002.94
2017-06-15T04:10:55.986Z,1002.93
2017-06-15T04:11:36.481Z,1002.98
2017-06-15T04:12:17.004Z,1002.96
2017-06-15T04:12:57.561Z,1002.92
2017-06-15T04:13:38.083Z,1002.94
2017-06-15T04:14:18.607Z,1002.94
2017-06-15T04:14:59.130Z,1002.98
2017-06-15T04:15:39.644Z,1002.97
2017-06-15T04:16:20.170Z,1002.97
2017-06-15T04:18:38.577Z,1002.98
2017-06-15T04:19:19.126Z,1003.02
2017-06-15T04:19:59.647Z,1003.04
2017-06-15T04:20:40.189Z,1003.02
2017-06-15T04:21:20.731Z,1003.02
2017-06-15T04:22:01.247Z,1002.99
2017-06-15T04:22:41.799Z,1002.98
2017-06-15T04:23:22.305Z,1003.01
2017-06-15T04:24:02.858Z,1003.03
2017-06-15T04:24:43.365Z,1003.05
2017-06-15T04:25:23.895Z,1003.02
2017-06-15T04:26:04.413Z,1003.04
2017-06-15T04:26:44.958Z,1003.02
2017-06-15T04:27:25.451Z,1003.02
2017-06-15T04:28:05.972Z,1003
2017-06-15T04:28:46.521Z,1003.01
2017-06-15T04:29:27.001Z,1003.01
2017-06-15T04:30:07.510Z,1003
2017-06-15T04:30:48.006Z,1003.01
2017-06-15T04:31:28.512Z,1002.99
2017-06-15T04:32:09.044Z,1003.01
2017-06-15T04:32:49.595Z,1002.96
2017-06-15T04:33:30.113Z,1002.97
2017-06-15T04:34:10.656Z,1002.98
2017-06-15T04:34:51.172Z,1002.93
2017-06-15T04:37:19.744Z,1003.03
2017-06-15T04:38:00.308Z,1003.04
2017-06-15T04:38:40.860Z,1002.99
2017-06-15T04:39:21.377Z,1002.97
2017-06-15T04:40:01.877Z,1003
2017-06-15T04:40:42.398Z,1003.01
2017-06-15T04:41:22.901Z,1003.05
2017-06-15T04:42:03.402Z,1003.12
2017-06-15T04:42:43.924Z,1003.11
2017-06-15T04:43:24.449Z,1003.12
2017-06-15T04:44:04.955Z,1003.15
2017-06-15T04:44:45.487Z,1003.12
2017-06-15T04:47:03.856Z,1002.98
2017-06-15T04:47:44.391Z,1002.98
2017-06-15T04:48:24.935Z,1003.02
2017-06-15T04:49:05.442Z,1003.01
2017-06-15T04:49:45.956Z,1003.04
2017-06-15T04:50:26.465Z,1003.01
2017-06-15T04:51:06.984Z,1002.98
2017-06-15T04:51:47.495Z,1003
2017-06-15T04:52:28.000Z,1003.01
2017-06-15T04:53:08.524Z,1003
2017-06-15T04:53:49.034Z,1002.99
2017-06-15T04:54:29.575Z,1003
2017-06-15T04:55:10.081Z,1003.04
2017-06-15T04:55:50.610Z,1003.06
2017-06-15T04:56:31.126Z,1003
2017-06-15T04:57:11.656Z,1003.04
2017-06-15T04:57:52.169Z,1003.05
2017-06-15T04:58:32.690Z,1003.04
2017-06-15T05:00:46.014Z,1003.06
2017-06-15T05:01:26.514Z,1003.03
2017-06-15T05:02:07.042Z,1003.06
2017-06-15T05:02:47.778Z,1003.03
2017-06-15T05:05:16.265Z,1003.03
2017-06-15T05:05:57.358Z,1002.99
2017-06-15T05:06:37.936Z,1003.01
2017-06-15T05:07:18.656Z,1003
2017-06-15T05:07:59.526Z,1003
2017-06-15T05:09:52.616Z,1002.96
2017-06-15T05:10:33.139Z,1002.94
2017-06-15T05:11:13.647Z,1002.93
2017-06-15T05:11:54.144Z,1002.91
2017-06-15T05:12:34.676Z,1002.92
2017-06-15T05:13:15.194Z,1002.94
2017-06-15T05:13:55.688Z,1002.93
2017-06-15T05:14:36.204Z,1002.94
2017-06-15T05:15:16.748Z,1002.98
2017-06-15T05:15:57.266Z,1003
2017-06-15T05:16:37.784Z,1003.01
2017-06-15T05:17:18.274Z,1003.01
2017-06-15T05:17:58.806Z,1002.97
2017-06-15T05:18:39.331Z,1002.98
2017-06-15T05:19:19.873Z,1002.99
2017-06-15T05:20:00.533Z,1002.98
2017-06-15T05:20:41.058Z,1002.97
2017-06-15T05:21:21.583Z,1002.94
2017-06-15T05:22:02.080Z,1002.96
2017-06-15T05:22:42.630Z,1002.97
2017-06-15T05:23:23.157Z,1003.02
2017-06-15T05:24:03.691Z,1003.01
2017-06-15T05:24:44.187Z,1003.01
2017-06-15T05:25:24.684Z,1003
2017-06-15T05:26:05.202Z,1003.04
2017-06-15T05:26:45.726Z,1003.1
2017-06-15T05:27:26.248Z,1003.06
2017-06-15T05:28:06.787Z,1002.97
2017-06-15T05:28:47.279Z,1002.93
2017-06-15T05:29:27.804Z,1002.92
2017-06-15T05:30:08.313Z,1002.96
2017-06-15T05:30:48.789Z,1002.92
2017-06-15T05:31:29.315Z,1002.95
2017-06-15T05:32:09.836Z,1002.95
2017-06-15T05:32:50.359Z,1002.95
2017-06-15T05:33:30.874Z,1002.98
2017-06-15T05:34:11.378Z,1002.9
2017-06-15T05:34:51.891Z,1002.95
2017-06-15T05:38:53.076Z,1002.96
2017-06-15T05:39:33.640Z,1002.93
2017-06-15T05:40:14.121Z,1002.96
2017-06-15T05:42:07.188Z,1002.95
2017-06-15T05:42:47.707Z,1003.01
2017-06-15T05:43:28.274Z,1003.01
2017-06-15T05:44:08.895Z,1003
2017-06-15T05:44:49.415Z,1003.01
2017-06-15T05:45:29.948Z,1003
2017-06-15T05:46:10.463Z,1002.98
2017-06-15T05:46:51.012Z,1002.99
2017-06-15T05:47:31.558Z,1002.98
2017-06-15T05:49:29.781Z,1002.99
2017-06-15T05:50:10.320Z,1003
2017-06-15T05:50:50.842Z,1003.03
2017-06-15T05:51:31.397Z,1003.02
2017-06-15T05:52:11.943Z,1003.02
2017-06-15T05:54:40.665Z,1003.04
2017-06-15T05:55:21.182Z,1003.08
2017-06-15T05:56:01.723Z,1003.24
2017-06-15T05:56:42.304Z,1003.24
2017-06-15T05:58:35.341Z,1003.24
2017-06-15T05:59:15.867Z,1003.19
2017-06-15T05:59:56.389Z,1003.19
2017-06-15T06:00:36.940Z,1003.19
2017-06-15T06:01:17.502Z,1003.16
2017-06-15T06:01:58.030Z,1003.17
2017-06-15T06:02:38.536Z,1003.19
2017-06-15T06:03:19.052Z,1003.19
2017-06-15T06:03:59.554Z,1003.23
2017-06-15T06:04:40.075Z,1003.24
2017-06-15T06:05:20.582Z,1003.27
2017-06-15T06:06:01.087Z,1003.24
2017-06-15T06:06:41.590Z,1003.23
2017-06-15T06:07:22.105Z,1003.21
2017-06-15T06:08:02.621Z,1003.17
2017-06-15T06:08:43.158Z,1003.18
2017-06-15T06:09:23.667Z,1003.23
2017-06-15T06:10:04.188Z,1003.17
2017-06-15T06:10:44.708Z,1003.19
2017-06-15T06:11:25.225Z,1003.19
2017-06-15T06:12:05.772Z,1003.2
2017-06-15T06:12:46.326Z,1003.2
2017-06-15T06:13:26.850Z,1003.19
2017-06-15T06:14:07.319Z,1003.18
2017-06-15T06:16:35.846Z,1003.21
2017-06-15T06:17:16.354Z,1003.18
2017-06-15T06:17:56.867Z,1003.19
2017-06-15T06:18:37.404Z,1003.15
2017-06-15T06:19:17.936Z,1003.1
2017-06-15T06:19:58.421Z,1003.17
2017-06-15T06:20:39.014Z,1003.13
2017-06-15T06:22:32.094Z,1003.17
2017-06-15T06:23:12.618Z,1003.19
2017-06-15T06:23:53.131Z,1003.18
2017-06-15T06:24:33.678Z,1003.19
2017-06-15T06:25:14.525Z,1003.17
2017-06-15T06:25:54.768Z,1003.19
2017-06-15T06:26:35.260Z,1003.22
2017-06-15T06:28:48.511Z,1003.21
2017-06-15T06:29:29.074Z,1003.16
2017-06-15T06:30:09.618Z,1003.18
2017-06-15T06:30:50.164Z,1003.21
2017-06-15T06:31:30.689Z,1003.15
2017-06-15T06:32:11.191Z,1003.14
2017-06-15T06:32:51.698Z,1003.21
2017-06-15T06:33:32.274Z,1003.19
2017-06-15T06:34:12.783Z,1003.16
2017-06-15T06:34:53.447Z,1003.2
2017-06-15T06:35:34.021Z,1003.18
2017-06-15T06:36:14.882Z,1003.18
2017-06-15T06:36:55.564Z,1003.24
2017-06-15T06:38:49.776Z,1003.24
2017-06-15T06:39:30.932Z,1003.23
2017-06-15T06:40:11.459Z,1003.24
2017-06-15T06:40:51.989Z,1003.21
2017-06-15T06:41:32.578Z,1003.19
2017-06-15T06:42:13.320Z,1003.19
2017-06-15T06:42:53.860Z,1003.18
2017-06-15T06:43:35.257Z,1003.2
2017-06-15T06:44:15.093Z,1003.19
2017-06-15T06:44:55.463Z,1003.18
2017-06-15T06:45:36.028Z,1003.21
2017-06-15T06:46:16.971Z,1003.24
2017-06-15T06:46:57.979Z,1003.23
2017-06-15T06:47:38.495Z,1003.28
2017-06-15T06:48:18.979Z,1003.23
2017-06-15T06:49:00.052Z,1003.25
2017-06-15T06:49:40.572Z,1003.23
2017-06-15T06:50:21.038Z,1003.26
2017-06-15T06:51:01.732Z,1003.27
2017-06-15T06:51:42.230Z,1003.26
2017-06-15T06:52:22.745Z,1003.26
2017-06-15T06:53:03.348Z,1003.25
2017-06-15T06:53:44.000Z,1003.24
2017-06-15T06:54:24.512Z,1003.19
2017-06-15T06:55:05.037Z,1003.23
2017-06-15T06:55:45.514Z,1003.23
2017-06-15T06:56:26.235Z,1003.19
2017-06-15T06:57:07.461Z,1003.2
2017-06-15T06:57:48.390Z,1003.18
2017-06-15T06:58:29.017Z,1003.23
2017-06-15T06:59:09.544Z,1003.24
2017-06-15T06:59:49.975Z,1003.23
2017-06-15T07:00:30.469Z,1003.25
2017-06-15T07:01:11.088Z,1003.27
2017-06-15T07:01:51.536Z,1003.28
2017-06-15T07:02:32.027Z,1003.31
2017-06-15T07:03:12.771Z,1003.3
2017-06-15T07:03:53.103Z,1003.27
2017-06-15T07:04:33.824Z,1003.27
2017-06-15T07:05:14.625Z,1003.27
2017-06-15T07:05:55.995Z,1003.26
2017-06-15T07:06:36.600Z,1003.25
2017-06-15T07:07:16.978Z,1003.23
2017-06-15T07:07:57.606Z,1003.23
2017-06-15T07:08:38.154Z,1003.22
2017-06-15T07:09:24.407Z,1003.21
2017-06-15T07:10:04.376Z,1003.19
2017-06-15T07:10:44.828Z,1003.25
2017-06-15T07:11:25.364Z,1003.2
2017-06-15T07:12:05.871Z,1003.2
2017-06-15T07:12:46.359Z,1003.22
2017-06-15T07:13:26.879Z,1003.17
2017-06-15T07:14:07.434Z,1003.22
2017-06-15T07:14:47.954Z,1003.16
2017-06-15T07:15:28.473Z,1003.17
2017-06-15T07:16:09.137Z,1003.2
2017-06-15T07:16:49.703Z,1003.18
2017-06-15T07:17:30.186Z,1003.2
2017-06-15T07:18:10.816Z,1003.17
2017-06-15T07:18:51.471Z,1003.19
2017-06-15T07:19:31.985Z,1003.21
2017-06-15T07:20:12.531Z,1003.2
2017-06-15T07:20:53.078Z,1003.19
2017-06-15T07:21:33.671Z,1003.2
2017-06-15T07:22:14.116Z,1003.2
2017-06-15T07:22:54.631Z,1003.2
2017-06-15T07:23:35.570Z,1003.18
2017-06-15T07:24:16.202Z,1003.19
2017-06-15T07:24:56.905Z,1003.22
2017-06-15T07:25:37.520Z,1003.17
2017-06-15T07:26:18.926Z,1003.18
2017-06-15T07:26:59.606Z,1003.22
2017-06-15T07:27:40.073Z,1003.21
2017-06-15T07:28:21.467Z,1003.19
2017-06-15T07:29:01.915Z,1003.23
2017-06-15T07:29:42.440Z,1003.24
2017-06-15T07:30:22.930Z,1003.22
2017-06-15T07:31:03.401Z,1003.17
2017-06-15T07:31:43.964Z,1003.21
2017-06-15T07:32:24.395Z,1003.2
2017-06-15T07:33:04.884Z,1003.17
2017-06-15T07:33:45.374Z,1003.22
2017-06-15T07:34:25.899Z,1003.18
2017-06-15T07:35:06.384Z,1003.2
2017-06-15T07:35:46.877Z,1003.23
2017-06-15T07:36:27.451Z,1003.24
2017-06-15T07:37:07.908Z,1003.23
2017-06-15T07:37:48.417Z,1003.27
2017-06-15T07:38:28.954Z,1003.25
2017-06-15T07:39:09.444Z,1003.25
2017-06-15T07:39:49.986Z,1003.22
2017-06-15T07:40:30.504Z,1003.21
2017-06-15T07:41:11.011Z,1003.21
2017-06-15T07:41:51.501Z,1003.22
2017-06-15T07:42:31.991Z,1003.21
2017-06-15T07:43:12.487Z,1003.22
2017-06-15T07:43:52.986Z,1003.2
2017-06-15T07:44:33.548Z,1003.21
2017-06-15T07:45:14.083Z,1003.22
2017-06-15T07:45:54.662Z,1003.21
2017-06-15T07:46:35.174Z,1003.26
2017-06-15T07:47:15.671Z,1003.23
2017-06-15T07:47:56.194Z,1003.24
2017-06-15T07:48:36.915Z,1003.24
2017-06-15T07:49:17.188Z,1003.25
2017-06-15T07:49:57.692Z,1003.23
2017-06-15T07:50:38.242Z,1003.23
2017-06-15T07:51:18.735Z,1003.28
2017-06-15T07:51:59.205Z,1003.25
2017-06-15T07:52:39.740Z,1003.24
2017-06-15T07:53:20.205Z,1003.26
2017-06-15T07:54:00.738Z,1003.29
2017-06-15T07:54:41.251Z,1003.28
2017-06-15T07:55:21.742Z,1003.28
2017-06-15T07:56:02.202Z,1003.3
2017-06-15T07:56:42.904Z,1003.24
2017-06-15T07:57:23.545Z,1003.31
2017-06-15T07:58:04.051Z,1003.26
2017-06-15T07:58:44.542Z,1003.29
2017-06-15T07:59:25.070Z,1003.28
2017-06-15T08:00:05.590Z,1003.3
2017-06-15T08:00:46.078Z,1003.29
2017-06-15T08:01:26.584Z,1003.32
2017-06-15T08:02:07.089Z,1003.34
2017-06-15T08:02:47.594Z,1003.3
2017-06-15T08:03:28.083Z,1003.3
2017-06-15T08:04:08.590Z,1003.29
2017-06-15T08:04:49.131Z,1003.29
2017-06-15T08:05:29.662Z,1003.29
2017-06-15T08:06:10.272Z,1003.28
2017-06-15T08:06:50.990Z,1003.29
2017-06-15T08:07:31.670Z,1003.31
2017-06-15T08:08:12.161Z,1003.3
2017-06-15T08:08:52.706Z,1003.32
2017-06-15T08:09:33.203Z,1003.29
2017-06-15T08:10:13.728Z,1003.33
2017-06-15T08:10:54.238Z,1003.3
2017-06-15T08:11:34.754Z,1003.31
2017-06-15T08:12:15.216Z,1003.32
2017-06-15T08:12:55.794Z,1003.31
2017-06-15T08:13:36.314Z,1003.34
2017-06-15T08:14:16.758Z,1003.34
2017-06-15T08:14:57.237Z,1003.37
2017-06-15T08:15:37.756Z,1003.37
2017-06-15T08:16:18.214Z,1003.38
2017-06-15T08:16:58.698Z,1003.38
2017-06-15T08:17:39.469Z,1003.37
2017-06-15T08:18:20.042Z,1003.39
2017-06-15T08:19:00.564Z,1003.34
2017-06-15T08:19:41.027Z,1003.35
2017-06-15T08:20:21.573Z,1003.45
2017-06-15T08:21:02.055Z,1003.42
2017-06-15T08:21:42.568Z,1003.37
2017-06-15T08:22:23.078Z,1003.4
2017-06-15T08:23:03.608Z,1003.41
2017-06-15T08:23:44.084Z,1003.42
2017-06-15T08:24:24.631Z,1003.41
2017-06-15T08:25:05.093Z,1003.4
2017-06-15T08:25:45.613Z,1003.36
2017-06-15T08:26:26.117Z,1003.41
2017-06-15T08:27:06.620Z,1003.42
2017-06-15T08:27:47.219Z,1003.38
2017-06-15T08:28:27.697Z,1003.4
2017-06-15T08:29:08.227Z,1003.39
2017-06-15T08:29:48.650Z,1003.36
2017-06-15T08:30:29.191Z,1003.39
2017-06-15T08:31:09.681Z,1003.41
2017-06-15T08:33:10.468Z,1003.38
2017-06-15T08:33:50.980Z,1003.38
2017-06-15T08:34:31.513Z,1003.44
2017-06-15T08:35:11.994Z,1003.45
2017-06-15T08:35:52.515Z,1003.4
2017-06-15T08:36:32.971Z,1003.39
2017-06-15T08:37:13.453Z,1003.41
2017-06-15T08:37:54.094Z,1003.38
2017-06-15T08:38:34.906Z,1003.41
2017-06-15T08:39:15.537Z,1003.37
2017-06-15T08:39:58.162Z,1003.39
2017-06-15T08:40:38.823Z,1003.42
2017-06-15T08:41:19.255Z,1003.42
2017-06-15T08:42:02.545Z,1003.49
2017-06-15T08:42:43.598Z,1003.45
2017-06-15T08:43:24.737Z,1003.42
2017-06-15T08:44:05.474Z,1003.42
2017-06-15T08:44:46.017Z,1003.47
2017-06-15T08:45:28.331Z,1003.45
2017-06-15T08:46:08.733Z,1003.42
2017-06-15T08:46:49.280Z,1003.41
2017-06-15T08:47:29.890Z,1003.4
2017-06-15T08:48:10.521Z,1003.4
2017-06-15T08:48:51.157Z,1003.42
2017-06-15T08:49:31.606Z,1003.38
2017-06-15T08:50:12.231Z,1003.41
2017-06-15T08:50:52.730Z,1003.43
2017-06-15T08:51:33.263Z,1003.39
2017-06-15T08:52:13.819Z,1003.43
2017-06-15T08:52:54.378Z,1003.41
2017-06-15T08:53:35.002Z,1003.45
2017-06-15T08:54:15.558Z,1003.44
2017-06-15T08:54:56.157Z,1003.48
2017-06-15T08:55:36.707Z,1003.46
2017-06-15T08:56:17.171Z,1003.42
2017-06-15T08:56:57.774Z,1003.47